Lonepine, MT (59848)

8:52 PM MDT on August 28, 2016 (GMT -0600)
Smale | | Change Station
Active Advisory: Air Quality Alert

Elev 2831 ft 47.61 °N, 114.67 °W | Updated 49 seconds ago

Haze
Haze
69.1 °F
Feels Like 69.1 °F
N
3.2
Wind Variable Wind from SW

Today
High -- | Low -- °F
--% Chance of Precip.
Yesterday
High -- | Low -- °F
Precip. -- in
Pressure 30.05 in
Visibility 5.0 miles
Clouds Few 11000 ft
Dew Point 40 °F
Humidity 34%
Rainfall 0.00 in
Snow Depth Not available.
6:52 AM 8:25 PM
Waning Crescent, 11% visible
METAR KMSO 290153Z 28014KT 5SM HZ FEW110 26/01 A3011 RMK AO2 SLP175 T02560006
Pressure 30.05 in
Visibility 5.0 miles
Clouds Few 11000 ft
Dew Point 40 °F
Humidity 34%
Rainfall 0.00 in
Snow Depth Not available.
6:52 AM 8:25 PM
Waning Crescent, 11% visible
METAR KMSO 290153Z 28014KT 5SM HZ FEW110 26/01 A3011 RMK AO2 SLP175 T02560006

10-Day Weather Forecast

Almanac

Astronomy

Aug. 28, 2016 Rise Set
Actual Time
Civil Twilight
Nautical Twilight
Astronomical Twilight
Moon
Length of Visible Light
Length of Day
Tomorrow will be .
, % of the Moon is Illuminated

Today's Extremes

State Highs State Lows

Community

WunderPhotos

Upload Photos

1,935,780 photos uploaded!

WunderBlog® & News

Nearby

Air Quality

  Air Quality AQ Index Pollutant
Not available.

Snow Depth

Station Depth Elevation

Earthquake Activity

City Distance Mag. Time & Date
Minimum magnitude displayed is 2.5.

Coastal Water Temperatures

Place Temperature

Stations

Nearby Weather Stations

Station Location Temp. Windchill Dew Point Humidity Wind Precip. Elev Updated Type
                   

Watches & Warnings

Air Quality Alert
Issued: 9:00 AM MDT Aug. 28, 2016 – National Weather Service

The air quality alert for Sanders County has been cancelled.